sensor_id;sensor_type;location;lat;lon;timestamp;P1;durP1;ratioP1;P2;durP2;ratioP2
23745;SDS011;12053;48.878;9.632;2022-10-31T00:01:09;10.75;;;6.20;;
23745;SDS011;12053;48.878;9.632;2022-10-31T00:03:36;12.68;;;6.78;;
23745;SDS011;12053;48.878;9.632;2022-10-31T00:06:03;14.02;;;6.78;;
23745;SDS011;12053;48.878;9.632;2022-10-31T00:08:30;15.10;;;6.60;;
23745;SDS011;12053;48.878;9.632;2022-10-31T00:10:57;14.82;;;6.85;;
23745;SDS011;12053;48.878;9.632;2022-10-31T00:13:24;10.98;;;5.88;;
23745;SDS011;12053;48.878;9.632;2022-10-31T00:15:52;11.88;;;5.90;;
23745;SDS011;12053;48.878;9.632;2022-10-31T00:18:19;11.02;;;6.60;;
23745;SDS011;12053;48.878;9.632;2022-10-31T00:20:46;17.05;;;6.28;;
23745;SDS011;12053;48.878;9.632;2022-10-31T00:23:13;11.50;;;5.68;;
23745;SDS011;12053;48.878;9.632;2022-10-31T00:25:40;11.23;;;6.35;;
23745;SDS011;12053;48.878;9.632;2022-10-31T00:28:07;13.23;;;7.25;;
23745;SDS011;12053;48.878;9.632;2022-10-31T00:30:36;17.02;;;6.97;;
23745;SDS011;12053;48.878;9.632;2022-10-31T00:33:03;19.08;;;8.13;;
23745;SDS011;12053;48.878;9.632;2022-10-31T00:35:31;19.05;;;7.50;;
23745;SDS011;12053;48.878;9.632;2022-10-31T00:37:58;16.27;;;7.47;;
23745;SDS011;12053;48.878;9.632;2022-10-31T00:40:26;16.33;;;7.25;;
23745;SDS011;12053;48.878;9.632;2022-10-31T00:42:53;15.95;;;7.75;;
23745;SDS011;12053;48.878;9.632;2022-10-31T00:45:20;17.92;;;7.38;;
23745;SDS011;12053;48.878;9.632;2022-10-31T00:47:47;18.58;;;7.35;;
23745;SDS011;12053;48.878;9.632;2022-10-31T00:50:14;16.00;;;6.88;;
23745;SDS011;12053;48.878;9.632;2022-10-31T00:52:41;18.80;;;7.88;;
23745;SDS011;12053;48.878;9.632;2022-10-31T00:55:08;16.88;;;7.32;;
23745;SDS011;12053;48.878;9.632;2022-10-31T00:57:35;16.52;;;8.60;;
23745;SDS011;12053;48.878;9.632;2022-10-31T01:00:03;19.83;;;11.80;;
23745;SDS011;12053;48.878;9.632;2022-10-31T01:02:30;17.15;;;9.07;;
23745;SDS011;12053;48.878;9.632;2022-10-31T01:04:57;12.10;;;6.75;;
23745;SDS011;12053;48.878;9.632;2022-10-31T01:07:24;12.43;;;5.72;;
23745;SDS011;12053;48.878;9.632;2022-10-31T01:09:51;11.52;;;6.40;;
23745;SDS011;12053;48.878;9.632;2022-10-31T01:12:18;16.00;;;7.13;;
23745;SDS011;12053;48.878;9.632;2022-10-31T01:14:45;15.65;;;6.05;;
23745;SDS011;12053;48.878;9.632;2022-10-31T01:17:13;9.77;;;6.20;;
23745;SDS011;12053;48.878;9.632;2022-10-31T01:19:40;12.43;;;5.57;;
23745;SDS011;12053;48.878;9.632;2022-10-31T01:22:07;9.98;;;5.70;;
23745;SDS011;12053;48.878;9.632;2022-10-31T01:24:34;10.32;;;5.00;;
23745;SDS011;12053;48.878;9.632;2022-10-31T01:27:01;15.98;;;5.82;;
23745;SDS011;12053;48.878;9.632;2022-10-31T01:29:29;13.40;;;5.50;;
23745;SDS011;12053;48.878;9.632;2022-10-31T01:31:56;18.02;;;10.30;;
23745;SDS011;12053;48.878;9.632;2022-10-31T01:34:23;12.90;;;7.20;;
23745;SDS011;12053;48.878;9.632;2022-10-31T01:36:50;11.60;;;6.63;;
23745;SDS011;12053;48.878;9.632;2022-10-31T01:39:18;13.95;;;6.80;;
23745;SDS011;12053;48.878;9.632;2022-10-31T01:41:46;14.27;;;5.35;;
23745;SDS011;12053;48.878;9.632;2022-10-31T01:46:57;7.80;;;4.32;;
23745;SDS011;12053;48.878;9.632;2022-10-31T01:49:38;11.20;;;4.32;;
23745;SDS011;12053;48.878;9.632;2022-10-31T01:52:10;6.85;;;4.40;;
23745;SDS011;12053;48.878;9.632;2022-10-31T01:54:44;13.77;;;4.55;;
23745;SDS011;12053;48.878;9.632;2022-10-31T01:57:12;12.68;;;5.05;;
23745;SDS011;12053;48.878;9.632;2022-10-31T01:59:42;11.20;;;4.55;;
23745;SDS011;12053;48.878;9.632;2022-10-31T02:02:10;10.57;;;4.70;;
23745;SDS011;12053;48.878;9.632;2022-10-31T02:04:39;9.77;;;4.28;;
23745;SDS011;12053;48.878;9.632;2022-10-31T02:07:08;8.05;;;4.93;;
23745;SDS011;12053;48.878;9.632;2022-10-31T02:09:37;10.25;;;4.97;;
23745;SDS011;12053;48.878;9.632;2022-10-31T02:12:04;12.13;;;5.25;;
23745;SDS011;12053;48.878;9.632;2022-10-31T02:14:32;12.55;;;5.32;;
23745;SDS011;12053;48.878;9.632;2022-10-31T02:17:00;8.23;;;5.43;;
23745;SDS011;12053;48.878;9.632;2022-10-31T02:19:33;10.75;;;5.82;;
23745;SDS011;12053;48.878;9.632;2022-10-31T02:22:07;10.05;;;5.85;;
23745;SDS011;12053;48.878;9.632;2022-10-31T02:30:02;12.13;;;5.40;;
23745;SDS011;12053;48.878;9.632;2022-10-31T02:32:43;14.93;;;6.00;;
23745;SDS011;12053;48.878;9.632;2022-10-31T02:35:28;9.95;;;5.65;;
23745;SDS011;12053;48.878;9.632;2022-10-31T02:40:39;10.55;;;5.80;;
23745;SDS011;12053;48.878;9.632;2022-10-31T02:45:55;12.07;;;4.60;;
23745;SDS011;12053;48.878;9.632;2022-10-31T02:48:24;8.30;;;4.38;;
23745;SDS011;12053;48.878;9.632;2022-10-31T02:50:58;10.88;;;4.85;;
23745;SDS011;12053;48.878;9.632;2022-10-31T02:53:26;9.77;;;4.40;;
23745;SDS011;12053;48.878;9.632;2022-10-31T02:58:21;11.32;;;5.10;;
23745;SDS011;12053;48.878;9.632;2022-10-31T03:06:20;7.00;;;4.65;;
23745;SDS011;12053;48.878;9.632;2022-10-31T03:08:52;10.07;;;5.20;;
23745;SDS011;12053;48.878;9.632;2022-10-31T03:11:22;9.68;;;4.68;;
23745;SDS011;12053;48.878;9.632;2022-10-31T03:16:32;7.78;;;4.82;;
23745;SDS011;12053;48.878;9.632;2022-10-31T03:19:07;8.43;;;4.85;;
23745;SDS011;12053;48.878;9.632;2022-10-31T03:21:36;7.78;;;5.15;;
23745;SDS011;12053;48.878;9.632;2022-10-31T03:24:06;12.05;;;4.43;;
23745;SDS011;12053;48.878;9.632;2022-10-31T03:26:37;11.88;;;4.82;;
23745;SDS011;12053;48.878;9.632;2022-10-31T03:29:05;9.88;;;5.03;;
23745;SDS011;12053;48.878;9.632;2022-10-31T03:31:37;9.00;;;4.10;;
23745;SDS011;12053;48.878;9.632;2022-10-31T03:34:05;10.25;;;4.85;;
23745;SDS011;12053;48.878;9.632;2022-10-31T03:36:34;10.05;;;4.50;;
23745;SDS011;12053;48.878;9.632;2022-10-31T03:39:03;9.20;;;4.88;;
23745;SDS011;12053;48.878;9.632;2022-10-31T03:41:32;13.60;;;5.28;;
23745;SDS011;12053;48.878;9.632;2022-10-31T03:44:02;13.98;;;5.13;;
23745;SDS011;12053;48.878;9.632;2022-10-31T03:46:30;11.02;;;5.10;;
23745;SDS011;12053;48.878;9.632;2022-10-31T03:48:57;14.63;;;5.07;;
23745;SDS011;12053;48.878;9.632;2022-10-31T03:51:26;17.73;;;6.82;;
23745;SDS011;12053;48.878;9.632;2022-10-31T03:54:02;13.77;;;5.57;;
23745;SDS011;12053;48.878;9.632;2022-10-31T03:56:38;11.00;;;5.78;;
23745;SDS011;12053;48.878;9.632;2022-10-31T04:01:53;11.32;;;5.10;;
23745;SDS011;12053;48.878;9.632;2022-10-31T04:04:22;11.73;;;5.75;;
23745;SDS011;12053;48.878;9.632;2022-10-31T04:06:50;11.00;;;5.55;;
23745;SDS011;12053;48.878;9.632;2022-10-31T04:09:19;12.35;;;5.57;;
23745;SDS011;12053;48.878;9.632;2022-10-31T04:11:48;15.77;;;5.35;;
23745;SDS011;12053;48.878;9.632;2022-10-31T04:14:16;9.48;;;5.13;;
23745;SDS011;12053;48.878;9.632;2022-10-31T04:16:43;13.77;;;5.07;;
23745;SDS011;12053;48.878;9.632;2022-10-31T04:19:11;8.98;;;4.63;;
23745;SDS011;12053;48.878;9.632;2022-10-31T04:21:38;12.13;;;5.20;;
23745;SDS011;12053;48.878;9.632;2022-10-31T04:24:05;13.88;;;5.07;;
23745;SDS011;12053;48.878;9.632;2022-10-31T04:26:32;11.55;;;5.28;;
23745;SDS011;12053;48.878;9.632;2022-10-31T04:29:00;9.02;;;4.95;;
23745;SDS011;12053;48.878;9.632;2022-10-31T04:31:27;12.43;;;5.18;;
23745;SDS011;12053;48.878;9.632;2022-10-31T04:33:54;8.98;;;4.70;;
23745;SDS011;12053;48.878;9.632;2022-10-31T04:36:21;10.60;;;4.47;;
23745;SDS011;12053;48.878;9.632;2022-10-31T04:38:48;6.95;;;4.47;;
23745;SDS011;12053;48.878;9.632;2022-10-31T04:41:15;11.35;;;5.60;;
23745;SDS011;12053;48.878;9.632;2022-10-31T04:43:42;10.18;;;5.22;;
23745;SDS011;12053;48.878;9.632;2022-10-31T04:46:09;7.15;;;4.60;;
23745;SDS011;12053;48.878;9.632;2022-10-31T04:48:36;11.20;;;5.60;;
23745;SDS011;12053;48.878;9.632;2022-10-31T04:51:04;12.40;;;5.28;;
23745;SDS011;12053;48.878;9.632;2022-10-31T04:53:31;13.27;;;5.65;;
23745;SDS011;12053;48.878;9.632;2022-10-31T04:55:58;10.73;;;5.97;;
23745;SDS011;12053;48.878;9.632;2022-10-31T04:58:27;9.88;;;5.18;;
23745;SDS011;12053;48.878;9.632;2022-10-31T05:00:54;12.02;;;5.57;;
23745;SDS011;12053;48.878;9.632;2022-10-31T05:03:22;9.77;;;5.10;;
23745;SDS011;12053;48.878;9.632;2022-10-31T05:05:49;8.98;;;5.13;;
23745;SDS011;12053;48.878;9.632;2022-10-31T05:08:16;12.88;;;4.82;;
23745;SDS011;12053;48.878;9.632;2022-10-31T05:10:43;11.98;;;4.60;;
23745;SDS011;12053;48.878;9.632;2022-10-31T05:13:10;7.55;;;4.43;;
23745;SDS011;12053;48.878;9.632;2022-10-31T05:15:38;12.73;;;4.15;;
23745;SDS011;12053;48.878;9.632;2022-10-31T05:18:05;11.05;;;4.22;;
23745;SDS011;12053;48.878;9.632;2022-10-31T05:20:32;16.90;;;5.20;;
23745;SDS011;12053;48.878;9.632;2022-10-31T05:22:59;8.48;;;4.65;;
23745;SDS011;12053;48.878;9.632;2022-10-31T05:25:27;11.07;;;4.40;;
23745;SDS011;12053;48.878;9.632;2022-10-31T05:27:55;10.00;;;4.68;;
23745;SDS011;12053;48.878;9.632;2022-10-31T05:30:24;12.32;;;6.15;;
23745;SDS011;12053;48.878;9.632;2022-10-31T05:32:51;77.80;;;44.15;;
23745;SDS011;12053;48.878;9.632;2022-10-31T05:35:21;82.57;;;44.33;;
23745;SDS011;12053;48.878;9.632;2022-10-31T05:37:48;55.83;;;31.38;;
23745;SDS011;12053;48.878;9.632;2022-10-31T05:40:16;36.33;;;19.92;;
23745;SDS011;12053;48.878;9.632;2022-10-31T05:42:43;36.15;;;22.63;;
23745;SDS011;12053;48.878;9.632;2022-10-31T05:45:14;27.80;;;17.10;;
23745;SDS011;12053;48.878;9.632;2022-10-31T05:47:49;41.75;;;27.33;;
23745;SDS011;12053;48.878;9.632;2022-10-31T05:50:16;44.83;;;30.80;;
23745;SDS011;12053;48.878;9.632;2022-10-31T05:52:44;35.97;;;22.15;;
23745;SDS011;12053;48.878;9.632;2022-10-31T05:55:11;31.27;;;17.38;;
23745;SDS011;12053;48.878;9.632;2022-10-31T05:57:38;25.88;;;13.43;;
23745;SDS011;12053;48.878;9.632;2022-10-31T06:00:05;16.13;;;9.27;;
23745;SDS011;12053;48.878;9.632;2022-10-31T06:02:32;15.95;;;10.02;;
23745;SDS011;12053;48.878;9.632;2022-10-31T06:05:00;12.20;;;7.25;;
23745;SDS011;12053;48.878;9.632;2022-10-31T06:07:31;14.50;;;5.50;;
23745;SDS011;12053;48.878;9.632;2022-10-31T06:09:59;8.93;;;5.25;;
23745;SDS011;12053;48.878;9.632;2022-10-31T06:12:26;12.77;;;5.90;;
23745;SDS011;12053;48.878;9.632;2022-10-31T06:14:55;12.20;;;6.00;;
23745;SDS011;12053;48.878;9.632;2022-10-31T06:17:23;14.25;;;6.07;;
23745;SDS011;12053;48.878;9.632;2022-10-31T06:19:50;9.48;;;5.80;;
23745;SDS011;12053;48.878;9.632;2022-10-31T06:22:17;16.15;;;6.32;;
23745;SDS011;12053;48.878;9.632;2022-10-31T06:24:44;12.40;;;6.63;;
23745;SDS011;12053;48.878;9.632;2022-10-31T06:27:11;13.20;;;6.07;;
23745;SDS011;12053;48.878;9.632;2022-10-31T06:29:38;13.10;;;6.20;;
23745;SDS011;12053;48.878;9.632;2022-10-31T06:32:05;11.45;;;6.80;;
23745;SDS011;12053;48.878;9.632;2022-10-31T06:34:32;14.02;;;6.00;;
23745;SDS011;12053;48.878;9.632;2022-10-31T06:36:59;10.23;;;5.78;;
23745;SDS011;12053;48.878;9.632;2022-10-31T06:39:26;12.77;;;4.93;;
23745;SDS011;12053;48.878;9.632;2022-10-31T06:41:54;8.75;;;4.60;;
23745;SDS011;12053;48.878;9.632;2022-10-31T06:44:21;11.18;;;5.85;;
23745;SDS011;12053;48.878;9.632;2022-10-31T06:46:48;8.05;;;4.88;;
23745;SDS011;12053;48.878;9.632;2022-10-31T06:49:16;11.40;;;5.13;;
23745;SDS011;12053;48.878;9.632;2022-10-31T06:51:43;10.57;;;5.70;;
23745;SDS011;12053;48.878;9.632;2022-10-31T06:54:10;15.38;;;8.43;;
23745;SDS011;12053;48.878;9.632;2022-10-31T06:56:37;9.95;;;4.90;;
23745;SDS011;12053;48.878;9.632;2022-10-31T06:59:04;7.47;;;5.85;;
23745;SDS011;12053;48.878;9.632;2022-10-31T07:01:31;13.13;;;6.30;;
23745;SDS011;12053;48.878;9.632;2022-10-31T07:03:59;9.30;;;5.90;;
23745;SDS011;12053;48.878;9.632;2022-10-31T07:06:26;7.57;;;4.82;;
23745;SDS011;12053;48.878;9.632;2022-10-31T07:08:53;9.02;;;5.95;;
23745;SDS011;12053;48.878;9.632;2022-10-31T07:11:20;14.07;;;6.35;;
23745;SDS011;12053;48.878;9.632;2022-10-31T07:13:47;15.88;;;6.00;;
23745;SDS011;12053;48.878;9.632;2022-10-31T07:16:14;10.70;;;7.60;;
23745;SDS011;12053;48.878;9.632;2022-10-31T07:18:41;13.30;;;6.75;;
23745;SDS011;12053;48.878;9.632;2022-10-31T07:21:08;10.25;;;5.80;;
23745;SDS011;12053;48.878;9.632;2022-10-31T07:23:36;12.73;;;6.45;;
23745;SDS011;12053;48.878;9.632;2022-10-31T07:26:03;16.75;;;7.40;;
23745;SDS011;12053;48.878;9.632;2022-10-31T07:28:30;14.00;;;6.00;;
23745;SDS011;12053;48.878;9.632;2022-10-31T07:30:57;12.98;;;6.68;;
23745;SDS011;12053;48.878;9.632;2022-10-31T07:33:24;18.42;;;7.10;;
23745;SDS011;12053;48.878;9.632;2022-10-31T07:35:52;48.28;;;23.63;;
23745;SDS011;12053;48.878;9.632;2022-10-31T07:38:20;45.42;;;22.88;;
23745;SDS011;12053;48.878;9.632;2022-10-31T07:40:50;31.33;;;15.38;;
23745;SDS011;12053;48.878;9.632;2022-10-31T07:43:18;24.90;;;12.18;;
23745;SDS011;12053;48.878;9.632;2022-10-31T07:45:49;27.52;;;12.80;;
23745;SDS011;12053;48.878;9.632;2022-10-31T07:48:17;11.20;;;6.15;;
23745;SDS011;12053;48.878;9.632;2022-10-31T07:50:44;25.13;;;14.70;;
23745;SDS011;12053;48.878;9.632;2022-10-31T07:53:12;31.85;;;14.70;;
23745;SDS011;12053;48.878;9.632;2022-10-31T07:55:40;21.05;;;8.48;;
23745;SDS011;12053;48.878;9.632;2022-10-31T07:58:11;16.98;;;9.05;;
23745;SDS011;12053;48.878;9.632;2022-10-31T08:00:39;19.83;;;9.10;;
23745;SDS011;12053;48.878;9.632;2022-10-31T08:03:14;24.85;;;11.10;;
23745;SDS011;12053;48.878;9.632;2022-10-31T08:05:41;25.77;;;11.25;;
23745;SDS011;12053;48.878;9.632;2022-10-31T08:08:11;28.00;;;12.52;;
23745;SDS011;12053;48.878;9.632;2022-10-31T08:10:38;24.80;;;11.00;;
23745;SDS011;12053;48.878;9.632;2022-10-31T08:13:07;29.40;;;12.43;;
23745;SDS011;12053;48.878;9.632;2022-10-31T08:15:34;28.20;;;12.43;;
23745;SDS011;12053;48.878;9.632;2022-10-31T08:18:05;18.45;;;8.32;;
23745;SDS011;12053;48.878;9.632;2022-10-31T08:20:32;25.92;;;12.15;;
23745;SDS011;12053;48.878;9.632;2022-10-31T08:23:00;26.95;;;11.45;;
23745;SDS011;12053;48.878;9.632;2022-10-31T08:25:28;20.10;;;9.88;;
23745;SDS011;12053;48.878;9.632;2022-10-31T08:28:02;21.92;;;9.73;;
23745;SDS011;12053;48.878;9.632;2022-10-31T08:30:31;18.63;;;8.60;;
23745;SDS011;12053;48.878;9.632;2022-10-31T08:35:26;15.48;;;7.88;;
23745;SDS011;12053;48.878;9.632;2022-10-31T08:37:53;18.77;;;7.43;;
23745;SDS011;12053;48.878;9.632;2022-10-31T08:40:21;18.02;;;9.00;;
23745;SDS011;12053;48.878;9.632;2022-10-31T08:42:55;15.27;;;8.25;;
23745;SDS011;12053;48.878;9.632;2022-10-31T08:45:23;12.68;;;6.88;;
23745;SDS011;12053;48.878;9.632;2022-10-31T08:47:51;19.23;;;8.57;;
23745;SDS011;12053;48.878;9.632;2022-10-31T08:50:18;17.63;;;8.15;;
23745;SDS011;12053;48.878;9.632;2022-10-31T08:52:45;18.27;;;7.20;;
23745;SDS011;12053;48.878;9.632;2022-10-31T08:55:30;18.63;;;8.07;;
23745;SDS011;12053;48.878;9.632;2022-10-31T08:57:57;17.23;;;7.05;;
23745;SDS011;12053;48.878;9.632;2022-10-31T09:00:25;17.77;;;6.53;;
23745;SDS011;12053;48.878;9.632;2022-10-31T09:02:56;15.25;;;7.38;;
23745;SDS011;12053;48.878;9.632;2022-10-31T09:05:23;17.50;;;7.30;;
23745;SDS011;12053;48.878;9.632;2022-10-31T09:07:51;13.13;;;6.78;;
23745;SDS011;12053;48.878;9.632;2022-10-31T09:10:22;9.88;;;5.65;;
23745;SDS011;12053;48.878;9.632;2022-10-31T09:12:59;18.25;;;6.00;;
23745;SDS011;12053;48.878;9.632;2022-10-31T09:15:27;11.00;;;5.38;;
23745;SDS011;12053;48.878;9.632;2022-10-31T09:17:55;15.40;;;4.82;;
23745;SDS011;12053;48.878;9.632;2022-10-31T09:20:23;12.95;;;5.30;;
23745;SDS011;12053;48.878;9.632;2022-10-31T09:22:56;15.10;;;5.13;;
23745;SDS011;12053;48.878;9.632;2022-10-31T09:25:24;11.77;;;5.85;;
23745;SDS011;12053;48.878;9.632;2022-10-31T09:27:51;14.60;;;5.00;;
23745;SDS011;12053;48.878;9.632;2022-10-31T09:30:23;16.48;;;5.60;;
23745;SDS011;12053;48.878;9.632;2022-10-31T09:32:57;11.82;;;5.15;;
23745;SDS011;12053;48.878;9.632;2022-10-31T09:35:24;10.40;;;3.72;;
23745;SDS011;12053;48.878;9.632;2022-10-31T09:37:59;10.88;;;4.10;;
23745;SDS011;12053;48.878;9.632;2022-10-31T09:40:31;10.18;;;4.30;;
23745;SDS011;12053;48.878;9.632;2022-10-31T09:43:13;12.18;;;4.30;;
23745;SDS011;12053;48.878;9.632;2022-10-31T09:45:52;13.10;;;4.20;;
23745;SDS011;12053;48.878;9.632;2022-10-31T09:50:52;7.22;;;3.92;;
23745;SDS011;12053;48.878;9.632;2022-10-31T09:53:23;10.15;;;3.55;;
23745;SDS011;12053;48.878;9.632;2022-10-31T09:55:51;8.73;;;3.63;;
23745;SDS011;12053;48.878;9.632;2022-10-31T09:58:19;9.15;;;3.80;;
23745;SDS011;12053;48.878;9.632;2022-10-31T10:00:47;13.68;;;4.18;;
23745;SDS011;12053;48.878;9.632;2022-10-31T10:03:29;12.77;;;4.22;;
23745;SDS011;12053;48.878;9.632;2022-10-31T10:08:26;15.02;;;4.18;;
23745;SDS011;12053;48.878;9.632;2022-10-31T10:21:42;8.75;;;3.47;;
23745;SDS011;12053;48.878;9.632;2022-10-31T10:24:17;10.63;;;3.10;;
23745;SDS011;12053;48.878;9.632;2022-10-31T10:26:50;11.10;;;3.25;;
23745;SDS011;12053;48.878;9.632;2022-10-31T10:29:40;10.18;;;4.18;;
23745;SDS011;12053;48.878;9.632;2022-10-31T10:32:10;11.80;;;3.85;;
23745;SDS011;12053;48.878;9.632;2022-10-31T10:34:50;7.85;;;3.05;;
23745;SDS011;12053;48.878;9.632;2022-10-31T10:37:23;9.75;;;3.40;;
23745;SDS011;12053;48.878;9.632;2022-10-31T10:39:52;11.00;;;3.10;;
23745;SDS011;12053;48.878;9.632;2022-10-31T10:42:20;9.55;;;3.40;;
23745;SDS011;12053;48.878;9.632;2022-10-31T10:45:14;11.85;;;3.53;;
23745;SDS011;12053;48.878;9.632;2022-10-31T10:48:49;11.55;;;3.20;;
23745;SDS011;12053;48.878;9.632;2022-10-31T10:50:48;12.00;;;3.22;;
23745;SDS011;12053;48.878;9.632;2022-10-31T10:58:31;10.43;;;3.97;;
23745;SDS011;12053;48.878;9.632;2022-10-31T11:00:58;13.70;;;3.58;;
23745;SDS011;12053;48.878;9.632;2022-10-31T11:03:25;12.60;;;3.80;;
23745;SDS011;12053;48.878;9.632;2022-10-31T11:05:53;10.35;;;3.47;;
23745;SDS011;12053;48.878;9.632;2022-10-31T11:08:26;12.25;;;3.47;;
23745;SDS011;12053;48.878;9.632;2022-10-31T11:13:25;15.25;;;5.25;;
23745;SDS011;12053;48.878;9.632;2022-10-31T11:16:09;17.40;;;4.88;;
23745;SDS011;12053;48.878;9.632;2022-10-31T11:18:50;11.45;;;4.03;;
23745;SDS011;12053;48.878;9.632;2022-10-31T11:21:31;10.20;;;3.92;;
23745;SDS011;12053;48.878;9.632;2022-10-31T11:24:02;13.02;;;3.90;;
23745;SDS011;12053;48.878;9.632;2022-10-31T11:26:51;11.93;;;4.10;;
23745;SDS011;12053;48.878;9.632;2022-10-31T11:29:38;9.85;;;4.10;;
23745;SDS011;12053;48.878;9.632;2022-10-31T11:32:15;15.48;;;4.53;;
23745;SDS011;12053;48.878;9.632;2022-10-31T11:34:47;12.30;;;4.97;;
23745;SDS011;12053;48.878;9.632;2022-10-31T11:37:34;8.93;;;4.03;;
23745;SDS011;12053;48.878;9.632;2022-10-31T11:40:05;12.05;;;4.57;;
23745;SDS011;12053;48.878;9.632;2022-10-31T11:42:40;13.77;;;4.20;;
23745;SDS011;12053;48.878;9.632;2022-10-31T11:45:15;10.98;;;4.20;;
23745;SDS011;12053;48.878;9.632;2022-10-31T11:47:44;12.57;;;4.13;;
23745;SDS011;12053;48.878;9.632;2022-10-31T11:50:18;10.77;;;4.30;;
23745;SDS011;12053;48.878;9.632;2022-10-31T11:52:46;10.55;;;4.45;;
23745;SDS011;12053;48.878;9.632;2022-10-31T11:55:16;11.73;;;5.40;;
23745;SDS011;12053;48.878;9.632;2022-10-31T11:57:45;12.98;;;5.20;;
23745;SDS011;12053;48.878;9.632;2022-10-31T12:02:49;9.25;;;4.32;;
23745;SDS011;12053;48.878;9.632;2022-10-31T12:05:21;13.85;;;4.38;;
23745;SDS011;12053;48.878;9.632;2022-10-31T12:07:49;13.05;;;5.10;;
23745;SDS011;12053;48.878;9.632;2022-10-31T12:10:17;10.57;;;3.97;;
23745;SDS011;12053;48.878;9.632;2022-10-31T12:15:25;10.10;;;3.75;;
23745;SDS011;12053;48.878;9.632;2022-10-31T12:46:03;9.63;;;4.82;;
23745;SDS011;12053;48.878;9.632;2022-10-31T12:48:44;11.52;;;4.63;;
23745;SDS011;12053;48.878;9.632;2022-10-31T12:51:29;13.43;;;4.40;;
23745;SDS011;12053;48.878;9.632;2022-10-31T12:56:56;8.77;;;4.30;;
23745;SDS011;12053;48.878;9.632;2022-10-31T13:01:56;14.38;;;6.35;;
23745;SDS011;12053;48.878;9.632;2022-10-31T13:07:04;15.63;;;4.35;;
23745;SDS011;12053;48.878;9.632;2022-10-31T13:09:37;11.68;;;4.68;;
23745;SDS011;12053;48.878;9.632;2022-10-31T13:12:09;12.93;;;5.10;;
23745;SDS011;12053;48.878;9.632;2022-10-31T13:15:01;14.23;;;4.35;;
23745;SDS011;12053;48.878;9.632;2022-10-31T13:17:37;12.60;;;4.85;;
23745;SDS011;12053;48.878;9.632;2022-10-31T13:22:44;14.40;;;7.13;;
23745;SDS011;12053;48.878;9.632;2022-10-31T13:25:15;14.90;;;5.50;;
23745;SDS011;12053;48.878;9.632;2022-10-31T13:30:33;14.15;;;6.95;;
23745;SDS011;12053;48.878;9.632;2022-10-31T13:33:07;17.60;;;7.80;;
23745;SDS011;12053;48.878;9.632;2022-10-31T13:38:17;14.25;;;5.90;;
23745;SDS011;12053;48.878;9.632;2022-10-31T13:40:56;17.63;;;5.55;;
23745;SDS011;12053;48.878;9.632;2022-10-31T13:45:53;17.08;;;6.63;;
23745;SDS011;12053;48.878;9.632;2022-10-31T13:48:37;13.05;;;5.97;;
23745;SDS011;12053;48.878;9.632;2022-10-31T13:51:06;18.83;;;8.40;;
23745;SDS011;12053;48.878;9.632;2022-10-31T13:53:38;19.27;;;7.25;;
23745;SDS011;12053;48.878;9.632;2022-10-31T13:58:35;15.65;;;6.30;;
23745;SDS011;12053;48.878;9.632;2022-10-31T14:01:14;19.48;;;8.38;;
23745;SDS011;12053;48.878;9.632;2022-10-31T14:03:44;19.25;;;10.93;;
23745;SDS011;12053;48.878;9.632;2022-10-31T14:06:40;19.27;;;13.10;;
23745;SDS011;12053;48.878;9.632;2022-10-31T14:09:16;26.23;;;17.83;;
23745;SDS011;12053;48.878;9.632;2022-10-31T14:11:46;21.90;;;17.98;;
23745;SDS011;12053;48.878;9.632;2022-10-31T14:14:14;22.63;;;16.48;;
23745;SDS011;12053;48.878;9.632;2022-10-31T14:16:42;19.13;;;12.65;;
23745;SDS011;12053;48.878;9.632;2022-10-31T14:19:19;13.00;;;8.35;;
23745;SDS011;12053;48.878;9.632;2022-10-31T14:21:47;18.42;;;6.38;;
23745;SDS011;12053;48.878;9.632;2022-10-31T14:26:58;10.98;;;5.10;;
23745;SDS011;12053;48.878;9.632;2022-10-31T14:29:29;19.00;;;7.05;;
23745;SDS011;12053;48.878;9.632;2022-10-31T14:34:41;17.77;;;6.57;;
23745;SDS011;12053;48.878;9.632;2022-10-31T14:53:56;21.40;;;7.40;;
23745;SDS011;12053;48.878;9.632;2022-10-31T14:56:27;13.00;;;6.95;;
23745;SDS011;12053;48.878;9.632;2022-10-31T14:58:56;29.75;;;14.80;;
23745;SDS011;12053;48.878;9.632;2022-10-31T15:01:28;32.03;;;14.55;;
23745;SDS011;12053;48.878;9.632;2022-10-31T15:04:08;21.80;;;10.40;;
23745;SDS011;12053;48.878;9.632;2022-10-31T15:06:51;16.52;;;7.18;;
23745;SDS011;12053;48.878;9.632;2022-10-31T15:11:48;17.90;;;8.43;;
23745;SDS011;12053;48.878;9.632;2022-10-31T15:14:23;18.48;;;9.02;;
23745;SDS011;12053;48.878;9.632;2022-10-31T15:16:51;18.33;;;8.25;;
23745;SDS011;12053;48.878;9.632;2022-10-31T15:19:25;19.48;;;8.75;;
23745;SDS011;12053;48.878;9.632;2022-10-31T15:21:53;24.55;;;9.02;;
23745;SDS011;12053;48.878;9.632;2022-10-31T15:24:22;18.33;;;9.38;;
23745;SDS011;12053;48.878;9.632;2022-10-31T15:26:51;18.40;;;8.82;;
23745;SDS011;12053;48.878;9.632;2022-10-31T15:29:23;17.10;;;7.60;;
23745;SDS011;12053;48.878;9.632;2022-10-31T15:31:51;20.13;;;8.15;;
23745;SDS011;12053;48.878;9.632;2022-10-31T15:36:51;22.17;;;9.40;;
23745;SDS011;12053;48.878;9.632;2022-10-31T15:39:18;22.40;;;9.75;;
23745;SDS011;12053;48.878;9.632;2022-10-31T15:41:50;18.08;;;9.05;;
23745;SDS011;12053;48.878;9.632;2022-10-31T15:51:56;15.82;;;9.20;;
23745;SDS011;12053;48.878;9.632;2022-10-31T15:54:26;21.73;;;10.63;;
23745;SDS011;12053;48.878;9.632;2022-10-31T15:56:53;25.23;;;10.02;;
23745;SDS011;12053;48.878;9.632;2022-10-31T15:59:22;22.48;;;9.93;;
23745;SDS011;12053;48.878;9.632;2022-10-31T16:02:00;23.50;;;9.98;;
23745;SDS011;12053;48.878;9.632;2022-10-31T16:04:28;21.67;;;10.23;;
23745;SDS011;12053;48.878;9.632;2022-10-31T16:06:57;24.70;;;12.68;;
23745;SDS011;12053;48.878;9.632;2022-10-31T16:09:25;25.48;;;12.02;;
23745;SDS011;12053;48.878;9.632;2022-10-31T16:11:52;26.02;;;11.15;;
23745;SDS011;12053;48.878;9.632;2022-10-31T16:14:25;22.55;;;9.23;;
23745;SDS011;12053;48.878;9.632;2022-10-31T16:16:53;23.60;;;11.00;;
23745;SDS011;12053;48.878;9.632;2022-10-31T16:21:50;17.52;;;10.15;;
23745;SDS011;12053;48.878;9.632;2022-10-31T16:27:18;20.48;;;9.80;;
23745;SDS011;12053;48.878;9.632;2022-10-31T16:29:49;25.13;;;12.98;;
23745;SDS011;12053;48.878;9.632;2022-10-31T16:37:25;28.27;;;12.88;;
23745;SDS011;12053;48.878;9.632;2022-10-31T16:39:52;25.90;;;11.52;;
23745;SDS011;12053;48.878;9.632;2022-10-31T16:42:19;42.88;;;23.25;;
23745;SDS011;12053;48.878;9.632;2022-10-31T16:44:47;47.78;;;22.95;;
23745;SDS011;12053;48.878;9.632;2022-10-31T16:47:16;60.72;;;34.03;;
23745;SDS011;12053;48.878;9.632;2022-10-31T16:49:43;52.67;;;28.70;;
23745;SDS011;12053;48.878;9.632;2022-10-31T16:52:13;47.50;;;26.10;;
23745;SDS011;12053;48.878;9.632;2022-10-31T16:54:40;39.60;;;22.83;;
23745;SDS011;12053;48.878;9.632;2022-10-31T16:57:09;26.08;;;15.80;;
23745;SDS011;12053;48.878;9.632;2022-10-31T16:59:38;43.47;;;23.00;;
23745;SDS011;12053;48.878;9.632;2022-10-31T17:02:06;54.88;;;38.70;;
23745;SDS011;12053;48.878;9.632;2022-10-31T17:04:38;42.15;;;23.95;;
23745;SDS011;12053;48.878;9.632;2022-10-31T17:07:05;39.03;;;28.05;;
23745;SDS011;12053;48.878;9.632;2022-10-31T17:09:32;43.70;;;29.38;;
23745;SDS011;12053;48.878;9.632;2022-10-31T17:11:59;27.10;;;16.75;;
23745;SDS011;12053;48.878;9.632;2022-10-31T17:14:26;28.40;;;17.65;;
23745;SDS011;12053;48.878;9.632;2022-10-31T17:16:53;31.52;;;15.88;;
23745;SDS011;12053;48.878;9.632;2022-10-31T17:19:23;26.38;;;16.48;;
23745;SDS011;12053;48.878;9.632;2022-10-31T17:21:50;32.15;;;18.75;;